sensor_id;sensor_type;location;lat;lon;timestamp;P1;durP1;ratioP1;P2;durP2;ratioP2
12631;SDS011;6381;45.748;12.106;2024-02-26T00:00:50;7.93;;;6.83;;
12631;SDS011;6381;45.748;12.106;2024-02-26T00:03:19;11.47;;;9.13;;
12631;SDS011;6381;45.748;12.106;2024-02-26T00:05:49;7.63;;;6.87;;
12631;SDS011;6381;45.748;12.106;2024-02-26T00:08:19;7.50;;;6.03;;
12631;SDS011;6381;45.748;12.106;2024-02-26T00:10:49;8.40;;;6.87;;
12631;SDS011;6381;45.748;12.106;2024-02-26T00:13:18;7.83;;;6.60;;
12631;SDS011;6381;45.748;12.106;2024-02-26T00:15:51;7.50;;;6.80;;
12631;SDS011;6381;45.748;12.106;2024-02-26T00:18:20;9.03;;;6.97;;
12631;SDS011;6381;45.748;12.106;2024-02-26T00:20:50;7.60;;;6.93;;
12631;SDS011;6381;45.748;12.106;2024-02-26T00:23:20;8.47;;;7.67;;
12631;SDS011;6381;45.748;12.106;2024-02-26T00:25:51;9.33;;;7.67;;
12631;SDS011;6381;45.748;12.106;2024-02-26T00:28:21;8.33;;;7.53;;
12631;SDS011;6381;45.748;12.106;2024-02-26T00:30:53;8.27;;;6.13;;
12631;SDS011;6381;45.748;12.106;2024-02-26T00:33:23;10.57;;;7.67;;
12631;SDS011;6381;45.748;12.106;2024-02-26T00:35:53;9.70;;;7.00;;
12631;SDS011;6381;45.748;12.106;2024-02-26T00:38:23;9.37;;;7.10;;
12631;SDS011;6381;45.748;12.106;2024-02-26T00:40:53;9.33;;;7.47;;
12631;SDS011;6381;45.748;12.106;2024-02-26T00:43:24;9.83;;;7.83;;
12631;SDS011;6381;45.748;12.106;2024-02-26T00:45:55;8.20;;;7.40;;
12631;SDS011;6381;45.748;12.106;2024-02-26T00:48:25;9.53;;;8.13;;
12631;SDS011;6381;45.748;12.106;2024-02-26T00:50:55;9.67;;;8.33;;
12631;SDS011;6381;45.748;12.106;2024-02-26T00:53:26;8.00;;;7.20;;
12631;SDS011;6381;45.748;12.106;2024-02-26T00:55:56;8.23;;;7.43;;
12631;SDS011;6381;45.748;12.106;2024-02-26T00:58:27;9.60;;;8.23;;
12631;SDS011;6381;45.748;12.106;2024-02-26T01:00:58;8.73;;;7.83;;
12631;SDS011;6381;45.748;12.106;2024-02-26T01:03:28;8.87;;;8.07;;
12631;SDS011;6381;45.748;12.106;2024-02-26T01:05:58;7.90;;;7.03;;
12631;SDS011;6381;45.748;12.106;2024-02-26T01:08:28;9.10;;;8.03;;
12631;SDS011;6381;45.748;12.106;2024-02-26T01:10:58;25.97;;;21.30;;
12631;SDS011;6381;45.748;12.106;2024-02-26T01:13:28;24.53;;;20.70;;
12631;SDS011;6381;45.748;12.106;2024-02-26T01:15:59;18.53;;;13.03;;
12631;SDS011;6381;45.748;12.106;2024-02-26T01:18:30;9.13;;;8.10;;
12631;SDS011;6381;45.748;12.106;2024-02-26T01:21:00;8.67;;;7.87;;
12631;SDS011;6381;45.748;12.106;2024-02-26T01:23:32;8.50;;;7.70;;
12631;SDS011;6381;45.748;12.106;2024-02-26T01:26:01;7.93;;;7.00;;
12631;SDS011;6381;45.748;12.106;2024-02-26T01:28:32;7.33;;;6.53;;
12631;SDS011;6381;45.748;12.106;2024-02-26T01:31:03;7.03;;;6.33;;
12631;SDS011;6381;45.748;12.106;2024-02-26T01:33:36;7.00;;;6.40;;
12631;SDS011;6381;45.748;12.106;2024-02-26T01:36:04;6.90;;;6.20;;
12631;SDS011;6381;45.748;12.106;2024-02-26T01:38:35;7.67;;;6.97;;
12631;SDS011;6381;45.748;12.106;2024-02-26T01:41:04;7.77;;;6.93;;
12631;SDS011;6381;45.748;12.106;2024-02-26T01:43:34;8.57;;;7.77;;
12631;SDS011;6381;45.748;12.106;2024-02-26T01:46:06;7.67;;;6.97;;
12631;SDS011;6381;45.748;12.106;2024-02-26T01:48:41;8.77;;;7.90;;
12631;SDS011;6381;45.748;12.106;2024-02-26T01:51:12;8.80;;;7.90;;
12631;SDS011;6381;45.748;12.106;2024-02-26T01:53:43;8.00;;;7.27;;
12631;SDS011;6381;45.748;12.106;2024-02-26T01:56:13;7.90;;;6.63;;
12631;SDS011;6381;45.748;12.106;2024-02-26T01:58:45;8.30;;;6.80;;
12631;SDS011;6381;45.748;12.106;2024-02-26T02:01:18;9.40;;;7.03;;
12631;SDS011;6381;45.748;12.106;2024-02-26T02:03:51;7.67;;;6.80;;
12631;SDS011;6381;45.748;12.106;2024-02-26T02:06:21;7.53;;;6.70;;
12631;SDS011;6381;45.748;12.106;2024-02-26T02:08:51;7.87;;;6.67;;
12631;SDS011;6381;45.748;12.106;2024-02-26T02:11:22;6.70;;;6.00;;
12631;SDS011;6381;45.748;12.106;2024-02-26T02:13:52;9.00;;;6.47;;
12631;SDS011;6381;45.748;12.106;2024-02-26T02:16:24;6.93;;;6.23;;
12631;SDS011;6381;45.748;12.106;2024-02-26T02:18:54;6.90;;;6.20;;
12631;SDS011;6381;45.748;12.106;2024-02-26T02:21:26;6.40;;;5.80;;
12631;SDS011;6381;45.748;12.106;2024-02-26T02:23:58;7.17;;;6.47;;
12631;SDS011;6381;45.748;12.106;2024-02-26T02:26:28;8.83;;;6.63;;
12631;SDS011;6381;45.748;12.106;2024-02-26T02:28:57;7.17;;;6.47;;
12631;SDS011;6381;45.748;12.106;2024-02-26T02:31:28;7.03;;;6.40;;
12631;SDS011;6381;45.748;12.106;2024-02-26T02:33:58;6.20;;;5.60;;
12631;SDS011;6381;45.748;12.106;2024-02-26T02:36:32;6.50;;;5.90;;
12631;SDS011;6381;45.748;12.106;2024-02-26T02:39:02;6.97;;;5.90;;
12631;SDS011;6381;45.748;12.106;2024-02-26T02:41:32;7.53;;;6.03;;
12631;SDS011;6381;45.748;12.106;2024-02-26T02:44:01;6.73;;;6.10;;
12631;SDS011;6381;45.748;12.106;2024-02-26T02:46:31;6.60;;;6.00;;
12631;SDS011;6381;45.748;12.106;2024-02-26T02:49:02;6.97;;;5.63;;
12631;SDS011;6381;45.748;12.106;2024-02-26T02:51:34;7.00;;;5.87;;
12631;SDS011;6381;45.748;12.106;2024-02-26T02:54:05;6.47;;;5.77;;
12631;SDS011;6381;45.748;12.106;2024-02-26T02:56:35;7.20;;;6.50;;
12631;SDS011;6381;45.748;12.106;2024-02-26T02:59:06;7.67;;;5.70;;
12631;SDS011;6381;45.748;12.106;2024-02-26T03:01:35;7.03;;;5.70;;
12631;SDS011;6381;45.748;12.106;2024-02-26T03:04:06;6.63;;;6.00;;
12631;SDS011;6381;45.748;12.106;2024-02-26T03:06:37;6.57;;;5.97;;
12631;SDS011;6381;45.748;12.106;2024-02-26T03:09:07;6.30;;;5.70;;
12631;SDS011;6381;45.748;12.106;2024-02-26T03:11:39;5.90;;;5.30;;
12631;SDS011;6381;45.748;12.106;2024-02-26T03:14:11;7.67;;;6.63;;
12631;SDS011;6381;45.748;12.106;2024-02-26T03:16:41;9.93;;;6.97;;
12631;SDS011;6381;45.748;12.106;2024-02-26T03:19:14;13.13;;;9.33;;
12631;SDS011;6381;45.748;12.106;2024-02-26T03:21:46;16.40;;;10.40;;
12631;SDS011;6381;45.748;12.106;2024-02-26T03:24:16;14.53;;;10.30;;
12631;SDS011;6381;45.748;12.106;2024-02-26T03:26:46;8.93;;;7.17;;
12631;SDS011;6381;45.748;12.106;2024-02-26T03:29:19;6.77;;;5.77;;
12631;SDS011;6381;45.748;12.106;2024-02-26T03:31:50;6.17;;;5.57;;
12631;SDS011;6381;45.748;12.106;2024-02-26T03:34:21;5.73;;;5.23;;
12631;SDS011;6381;45.748;12.106;2024-02-26T03:36:55;5.70;;;5.10;;
12631;SDS011;6381;45.748;12.106;2024-02-26T03:39:25;5.90;;;5.40;;
12631;SDS011;6381;45.748;12.106;2024-02-26T03:41:55;5.60;;;5.07;;
12631;SDS011;6381;45.748;12.106;2024-02-26T03:44:25;7.40;;;4.83;;
12631;SDS011;6381;45.748;12.106;2024-02-26T03:46:55;5.47;;;4.97;;
12631;SDS011;6381;45.748;12.106;2024-02-26T03:49:25;5.47;;;4.97;;
12631;SDS011;6381;45.748;12.106;2024-02-26T03:51:57;6.20;;;5.37;;
12631;SDS011;6381;45.748;12.106;2024-02-26T03:54:27;5.83;;;5.30;;
12631;SDS011;6381;45.748;12.106;2024-02-26T03:56:58;6.50;;;5.40;;
12631;SDS011;6381;45.748;12.106;2024-02-26T03:59:28;7.10;;;6.17;;
12631;SDS011;6381;45.748;12.106;2024-02-26T04:01:58;6.23;;;5.63;;
12631;SDS011;6381;45.748;12.106;2024-02-26T04:04:29;7.30;;;6.30;;
12631;SDS011;6381;45.748;12.106;2024-02-26T04:07:04;6.50;;;5.87;;
12631;SDS011;6381;45.748;12.106;2024-02-26T04:09:35;6.63;;;6.03;;
12631;SDS011;6381;45.748;12.106;2024-02-26T04:12:05;7.10;;;6.40;;
12631;SDS011;6381;45.748;12.106;2024-02-26T04:14:36;7.33;;;6.63;;
12631;SDS011;6381;45.748;12.106;2024-02-26T04:17:06;7.27;;;6.33;;
12631;SDS011;6381;45.748;12.106;2024-02-26T04:19:36;9.00;;;8.10;;
12631;SDS011;6381;45.748;12.106;2024-02-26T04:22:08;8.63;;;7.83;;
12631;SDS011;6381;45.748;12.106;2024-02-26T04:24:38;8.37;;;7.60;;
12631;SDS011;6381;45.748;12.106;2024-02-26T04:27:08;9.80;;;9.00;;
12631;SDS011;6381;45.748;12.106;2024-02-26T04:29:38;10.00;;;9.10;;
12631;SDS011;6381;45.748;12.106;2024-02-26T04:32:09;10.13;;;9.23;;
12631;SDS011;6381;45.748;12.106;2024-02-26T04:34:39;10.33;;;9.33;;
12631;SDS011;6381;45.748;12.106;2024-02-26T04:37:11;10.63;;;9.57;;
12631;SDS011;6381;45.748;12.106;2024-02-26T04:39:43;11.07;;;9.97;;
12631;SDS011;6381;45.748;12.106;2024-02-26T04:42:17;11.07;;;9.97;;
12631;SDS011;6381;45.748;12.106;2024-02-26T04:44:47;10.73;;;9.70;;
12631;SDS011;6381;45.748;12.106;2024-02-26T04:47:17;10.67;;;9.77;;
12631;SDS011;6381;45.748;12.106;2024-02-26T04:49:47;10.37;;;9.20;;
12631;SDS011;6381;45.748;12.106;2024-02-26T04:52:19;9.33;;;8.50;;
12631;SDS011;6381;45.748;12.106;2024-02-26T04:54:51;9.93;;;9.03;;
12631;SDS011;6381;45.748;12.106;2024-02-26T04:57:22;9.40;;;8.50;;
12631;SDS011;6381;45.748;12.106;2024-02-26T04:59:52;9.57;;;8.40;;
12631;SDS011;6381;45.748;12.106;2024-02-26T05:02:22;9.40;;;8.13;;
12631;SDS011;6381;45.748;12.106;2024-02-26T05:04:52;9.70;;;8.07;;
12631;SDS011;6381;45.748;12.106;2024-02-26T05:07:23;9.53;;;8.63;;
12631;SDS011;6381;45.748;12.106;2024-02-26T05:09:53;9.97;;;9.07;;
12631;SDS011;6381;45.748;12.106;2024-02-26T05:12:23;9.50;;;8.60;;
12631;SDS011;6381;45.748;12.106;2024-02-26T05:14:54;9.47;;;8.57;;
12631;SDS011;6381;45.748;12.106;2024-02-26T05:17:24;9.40;;;8.53;;
12631;SDS011;6381;45.748;12.106;2024-02-26T05:19:54;9.47;;;8.63;;
12631;SDS011;6381;45.748;12.106;2024-02-26T05:22:26;10.53;;;9.43;;
12631;SDS011;6381;45.748;12.106;2024-02-26T05:24:57;9.67;;;8.87;;
12631;SDS011;6381;45.748;12.106;2024-02-26T05:27:27;9.40;;;8.47;;
12631;SDS011;6381;45.748;12.106;2024-02-26T05:29:57;9.40;;;8.10;;
12631;SDS011;6381;45.748;12.106;2024-02-26T05:32:27;9.37;;;8.57;;
12631;SDS011;6381;45.748;12.106;2024-02-26T05:34:57;8.53;;;7.73;;
12631;SDS011;6381;45.748;12.106;2024-02-26T05:37:29;9.20;;;8.40;;
12631;SDS011;6381;45.748;12.106;2024-02-26T05:39:59;7.73;;;7.00;;
12631;SDS011;6381;45.748;12.106;2024-02-26T05:42:32;9.03;;;8.17;;
12631;SDS011;6381;45.748;12.106;2024-02-26T05:45:02;8.30;;;7.50;;
12631;SDS011;6381;45.748;12.106;2024-02-26T05:47:34;8.10;;;7.40;;
12631;SDS011;6381;45.748;12.106;2024-02-26T05:50:10;7.90;;;7.20;;
12631;SDS011;6381;45.748;12.106;2024-02-26T05:52:44;9.37;;;7.50;;
12631;SDS011;6381;45.748;12.106;2024-02-26T05:55:14;8.83;;;7.77;;
12631;SDS011;6381;45.748;12.106;2024-02-26T05:57:45;8.97;;;7.87;;
12631;SDS011;6381;45.748;12.106;2024-02-26T06:00:17;8.80;;;8.10;;
12631;SDS011;6381;45.748;12.106;2024-02-26T06:02:48;9.43;;;8.63;;
12631;SDS011;6381;45.748;12.106;2024-02-26T06:05:18;9.30;;;8.50;;
12631;SDS011;6381;45.748;12.106;2024-02-26T06:07:50;9.43;;;8.53;;
12631;SDS011;6381;45.748;12.106;2024-02-26T06:10:20;9.00;;;8.20;;
12631;SDS011;6381;45.748;12.106;2024-02-26T06:12:50;9.70;;;8.80;;
12631;SDS011;6381;45.748;12.106;2024-02-26T06:15:21;11.50;;;10.40;;
12631;SDS011;6381;45.748;12.106;2024-02-26T06:17:51;11.63;;;10.60;;
12631;SDS011;6381;45.748;12.106;2024-02-26T06:20:22;9.87;;;9.07;;
12631;SDS011;6381;45.748;12.106;2024-02-26T06:22:53;9.00;;;8.20;;
12631;SDS011;6381;45.748;12.106;2024-02-26T06:25:24;8.37;;;7.47;;
12631;SDS011;6381;45.748;12.106;2024-02-26T06:27:55;7.03;;;6.33;;
12631;SDS011;6381;45.748;12.106;2024-02-26T06:30:26;8.90;;;8.00;;
12631;SDS011;6381;45.748;12.106;2024-02-26T06:32:56;9.30;;;8.40;;
12631;SDS011;6381;45.748;12.106;2024-02-26T06:35:27;7.93;;;7.20;;
12631;SDS011;6381;45.748;12.106;2024-02-26T06:37:59;8.67;;;6.60;;
12631;SDS011;6381;45.748;12.106;2024-02-26T06:40:29;7.97;;;6.53;;
12631;SDS011;6381;45.748;12.106;2024-02-26T06:42:59;8.77;;;7.10;;
12631;SDS011;6381;45.748;12.106;2024-02-26T06:45:30;8.00;;;6.70;;
12631;SDS011;6381;45.748;12.106;2024-02-26T06:48:01;7.17;;;6.47;;
12631;SDS011;6381;45.748;12.106;2024-02-26T06:50:32;7.37;;;6.43;;
12631;SDS011;6381;45.748;12.106;2024-02-26T06:53:04;8.10;;;6.63;;
12631;SDS011;6381;45.748;12.106;2024-02-26T06:55:35;8.17;;;7.40;;
12631;SDS011;6381;45.748;12.106;2024-02-26T06:58:08;8.00;;;7.30;;
12631;SDS011;6381;45.748;12.106;2024-02-26T07:00:38;8.57;;;7.77;;
12631;SDS011;6381;45.748;12.106;2024-02-26T07:03:08;8.37;;;7.67;;
12631;SDS011;6381;45.748;12.106;2024-02-26T07:05:40;7.70;;;7.00;;
12631;SDS011;6381;45.748;12.106;2024-02-26T07:08:14;6.97;;;6.17;;
12631;SDS011;6381;45.748;12.106;2024-02-26T07:10:44;7.90;;;7.07;;
12631;SDS011;6381;45.748;12.106;2024-02-26T07:13:14;8.03;;;7.17;;
12631;SDS011;6381;45.748;12.106;2024-02-26T07:15:45;9.03;;;6.93;;
12631;SDS011;6381;45.748;12.106;2024-02-26T07:18:15;9.23;;;7.30;;
12631;SDS011;6381;45.748;12.106;2024-02-26T07:20:46;7.93;;;7.13;;
12631;SDS011;6381;45.748;12.106;2024-02-26T07:23:18;7.40;;;6.53;;
12631;SDS011;6381;45.748;12.106;2024-02-26T07:25:48;8.37;;;6.47;;
12631;SDS011;6381;45.748;12.106;2024-02-26T07:28:20;8.40;;;7.53;;
12631;SDS011;6381;45.748;12.106;2024-02-26T07:30:50;8.87;;;7.77;;
12631;SDS011;6381;45.748;12.106;2024-02-26T07:33:21;8.97;;;7.40;;
12631;SDS011;6381;45.748;12.106;2024-02-26T07:35:52;9.97;;;8.80;;
12631;SDS011;6381;45.748;12.106;2024-02-26T07:38:23;11.27;;;9.80;;
12631;SDS011;6381;45.748;12.106;2024-02-26T07:41:08;14.40;;;10.30;;
12631;SDS011;6381;45.748;12.106;2024-02-26T07:43:38;10.07;;;9.00;;
12631;SDS011;6381;45.748;12.106;2024-02-26T07:46:11;8.57;;;7.77;;
12631;SDS011;6381;45.748;12.106;2024-02-26T07:48:41;9.57;;;8.67;;
12631;SDS011;6381;45.748;12.106;2024-02-26T07:51:12;9.63;;;8.60;;
12631;SDS011;6381;45.748;12.106;2024-02-26T07:53:44;10.47;;;9.47;;
12631;SDS011;6381;45.748;12.106;2024-02-26T07:56:14;9.73;;;8.83;;
12631;SDS011;6381;45.748;12.106;2024-02-26T07:58:44;10.77;;;9.67;;
12631;SDS011;6381;45.748;12.106;2024-02-26T08:01:14;10.17;;;9.10;;
12631;SDS011;6381;45.748;12.106;2024-02-26T08:03:44;10.63;;;8.60;;
12631;SDS011;6381;45.748;12.106;2024-02-26T08:06:16;9.40;;;8.47;;
12631;SDS011;6381;45.748;12.106;2024-02-26T08:08:55;8.80;;;7.90;;
12631;SDS011;6381;45.748;12.106;2024-02-26T08:11:25;9.37;;;8.43;;
12631;SDS011;6381;45.748;12.106;2024-02-26T08:13:55;10.37;;;8.83;;
12631;SDS011;6381;45.748;12.106;2024-02-26T08:16:26;9.30;;;8.40;;
12631;SDS011;6381;45.748;12.106;2024-02-26T08:18:59;8.90;;;8.00;;
12631;SDS011;6381;45.748;12.106;2024-02-26T08:21:31;8.33;;;7.53;;
12631;SDS011;6381;45.748;12.106;2024-02-26T08:24:02;11.47;;;8.30;;
12631;SDS011;6381;45.748;12.106;2024-02-26T08:26:32;9.40;;;8.47;;
12631;SDS011;6381;45.748;12.106;2024-02-26T08:29:02;12.00;;;8.00;;
12631;SDS011;6381;45.748;12.106;2024-02-26T08:31:33;8.83;;;7.90;;
12631;SDS011;6381;45.748;12.106;2024-02-26T08:34:05;7.77;;;6.97;;
12631;SDS011;6381;45.748;12.106;2024-02-26T08:36:35;8.50;;;7.13;;
12631;SDS011;6381;45.748;12.106;2024-02-26T08:39:07;13.40;;;7.30;;
12631;SDS011;6381;45.748;12.106;2024-02-26T08:41:38;11.07;;;7.40;;
12631;SDS011;6381;45.748;12.106;2024-02-26T08:44:08;12.43;;;9.00;;
12631;SDS011;6381;45.748;12.106;2024-02-26T08:46:38;12.33;;;8.47;;
12631;SDS011;6381;45.748;12.106;2024-02-26T08:49:09;10.93;;;8.10;;
12631;SDS011;6381;45.748;12.106;2024-02-26T08:51:41;15.20;;;8.87;;
12631;SDS011;6381;45.748;12.106;2024-02-26T08:54:13;10.57;;;8.50;;
12631;SDS011;6381;45.748;12.106;2024-02-26T08:56:43;13.93;;;9.50;;
12631;SDS011;6381;45.748;12.106;2024-02-26T08:59:14;13.73;;;10.77;;
12631;SDS011;6381;45.748;12.106;2024-02-26T09:01:50;12.83;;;8.97;;
12631;SDS011;6381;45.748;12.106;2024-02-26T09:04:19;9.00;;;8.10;;
12631;SDS011;6381;45.748;12.106;2024-02-26T09:06:49;12.00;;;7.90;;
12631;SDS011;6381;45.748;12.106;2024-02-26T09:09:21;10.23;;;7.63;;
12631;SDS011;6381;45.748;12.106;2024-02-26T09:11:53;9.20;;;8.17;;
12631;SDS011;6381;45.748;12.106;2024-02-26T09:14:23;8.00;;;7.20;;
12631;SDS011;6381;45.748;12.106;2024-02-26T09:16:55;8.27;;;7.43;;
12631;SDS011;6381;45.748;12.106;2024-02-26T09:19:25;10.77;;;7.67;;
12631;SDS011;6381;45.748;12.106;2024-02-26T09:21:56;8.87;;;7.90;;
12631;SDS011;6381;45.748;12.106;2024-02-26T09:24:31;8.47;;;7.60;;
12631;SDS011;6381;45.748;12.106;2024-02-26T09:27:02;8.70;;;7.80;;
12631;SDS011;6381;45.748;12.106;2024-02-26T09:29:32;9.00;;;7.30;;
12631;SDS011;6381;45.748;12.106;2024-02-26T09:32:05;14.53;;;8.33;;
12631;SDS011;6381;45.748;12.106;2024-02-26T09:34:36;8.67;;;7.67;;
12631;SDS011;6381;45.748;12.106;2024-02-26T09:37:09;10.20;;;8.63;;
12631;SDS011;6381;45.748;12.106;2024-02-26T09:39:49;10.93;;;8.50;;
12631;SDS011;6381;45.748;12.106;2024-02-26T09:42:20;12.47;;;9.73;;
12631;SDS011;6381;45.748;12.106;2024-02-26T09:44:54;18.43;;;13.17;;
12631;SDS011;6381;45.748;12.106;2024-02-26T09:47:25;13.80;;;11.07;;
12631;SDS011;6381;45.748;12.106;2024-02-26T09:49:57;12.83;;;10.23;;
12631;SDS011;6381;45.748;12.106;2024-02-26T09:52:30;8.93;;;7.80;;
12631;SDS011;6381;45.748;12.106;2024-02-26T09:55:03;9.47;;;7.77;;
12631;SDS011;6381;45.748;12.106;2024-02-26T09:57:37;11.30;;;7.40;;
12631;SDS011;6381;45.748;12.106;2024-02-26T10:00:10;9.00;;;7.30;;
12631;SDS011;6381;45.748;12.106;2024-02-26T10:02:47;7.87;;;6.87;;
12631;SDS011;6381;45.748;12.106;2024-02-26T10:05:18;7.57;;;6.73;;
12631;SDS011;6381;45.748;12.106;2024-02-26T10:07:49;9.93;;;8.57;;
12631;SDS011;6381;45.748;12.106;2024-02-26T10:10:21;13.33;;;8.17;;
12631;SDS011;6381;45.748;12.106;2024-02-26T10:12:53;12.30;;;6.83;;
12631;SDS011;6381;45.748;12.106;2024-02-26T10:15:23;9.67;;;7.27;;
12631;SDS011;6381;45.748;12.106;2024-02-26T10:17:53;7.40;;;6.70;;
12631;SDS011;6381;45.748;12.106;2024-02-26T10:20:24;7.93;;;7.07;;
12631;SDS011;6381;45.748;12.106;2024-02-26T10:22:55;9.23;;;7.37;;
12631;SDS011;6381;45.748;12.106;2024-02-26T10:25:27;8.13;;;6.83;;
12631;SDS011;6381;45.748;12.106;2024-02-26T10:27:59;7.50;;;6.20;;
12631;SDS011;6381;45.748;12.106;2024-02-26T10:30:31;8.90;;;6.93;;
12631;SDS011;6381;45.748;12.106;2024-02-26T10:33:05;9.57;;;6.80;;
12631;SDS011;6381;45.748;12.106;2024-02-26T10:35:37;8.23;;;7.43;;
12631;SDS011;6381;45.748;12.106;2024-02-26T10:38:08;9.40;;;7.00;;
12631;SDS011;6381;45.748;12.106;2024-02-26T10:40:40;12.13;;;7.73;;
12631;SDS011;6381;45.748;12.106;2024-02-26T10:43:12;8.80;;;6.67;;
12631;SDS011;6381;45.748;12.106;2024-02-26T10:45:43;8.33;;;6.87;;
12631;SDS011;6381;45.748;12.106;2024-02-26T10:48:15;18.30;;;12.63;;
12631;SDS011;6381;45.748;12.106;2024-02-26T10:50:45;12.33;;;9.23;;
12631;SDS011;6381;45.748;12.106;2024-02-26T10:53:20;8.07;;;6.67;;
12631;SDS011;6381;45.748;12.106;2024-02-26T10:55:54;8.03;;;6.90;;
12631;SDS011;6381;45.748;12.106;2024-02-26T10:58:26;7.67;;;5.57;;
12631;SDS011;6381;45.748;12.106;2024-02-26T11:00:57;7.57;;;5.53;;
12631;SDS011;6381;45.748;12.106;2024-02-26T11:03:28;7.10;;;5.93;;
12631;SDS011;6381;45.748;12.106;2024-02-26T11:06:02;8.30;;;6.50;;
12631;SDS011;6381;45.748;12.106;2024-02-26T11:08:34;10.17;;;7.93;;
12631;SDS011;6381;45.748;12.106;2024-02-26T11:11:06;11.27;;;6.70;;
12631;SDS011;6381;45.748;12.106;2024-02-26T11:13:36;6.87;;;6.03;;
12631;SDS011;6381;45.748;12.106;2024-02-26T11:16:11;11.47;;;6.63;;
12631;SDS011;6381;45.748;12.106;2024-02-26T11:18:40;8.53;;;6.60;;
12631;SDS011;6381;45.748;12.106;2024-02-26T11:21:11;9.33;;;6.80;;
12631;SDS011;6381;45.748;12.106;2024-02-26T11:23:44;7.63;;;6.77;;
12631;SDS011;6381;45.748;12.106;2024-02-26T11:26:17;9.30;;;7.23;;
12631;SDS011;6381;45.748;12.106;2024-02-26T11:28:49;6.97;;;6.27;;
12631;SDS011;6381;45.748;12.106;2024-02-26T11:31:24;10.23;;;8.33;;
12631;SDS011;6381;45.748;12.106;2024-02-26T11:33:55;9.33;;;7.80;;
12631;SDS011;6381;45.748;12.106;2024-02-26T11:36:26;7.93;;;7.10;;
12631;SDS011;6381;45.748;12.106;2024-02-26T11:38:57;9.70;;;7.30;;
12631;SDS011;6381;45.748;12.106;2024-02-26T11:41:28;8.37;;;6.77;;
12631;SDS011;6381;45.748;12.106;2024-02-26T11:43:59;9.47;;;7.33;;
12631;SDS011;6381;45.748;12.106;2024-02-26T11:46:32;10.03;;;7.10;;
12631;SDS011;6381;45.748;12.106;2024-02-26T11:51:59;8.43;;;6.70;;
12631;SDS011;6381;45.748;12.106;2024-02-26T11:54:38;8.77;;;6.97;;
12631;SDS011;6381;45.748;12.106;2024-02-26T12:00:10;10.73;;;8.10;;
12631;SDS011;6381;45.748;12.106;2024-02-26T12:02:45;9.67;;;7.83;;
12631;SDS011;6381;45.748;12.106;2024-02-26T12:05:16;10.73;;;6.57;;
12631;SDS011;6381;45.748;12.106;2024-02-26T12:07:53;6.73;;;6.00;;
12631;SDS011;6381;45.748;12.106;2024-02-26T12:10:25;11.07;;;6.60;;
12631;SDS011;6381;45.748;12.106;2024-02-26T12:13:02;7.10;;;6.40;;
12631;SDS011;6381;45.748;12.106;2024-02-26T12:15:41;8.27;;;6.70;;
12631;SDS011;6381;45.748;12.106;2024-02-26T12:18:15;8.37;;;6.40;;
12631;SDS011;6381;45.748;12.106;2024-02-26T12:20:46;7.70;;;6.43;;
12631;SDS011;6381;45.748;12.106;2024-02-26T12:23:27;8.87;;;6.30;;
12631;SDS011;6381;45.748;12.106;2024-02-26T12:25:58;8.43;;;6.87;;
12631;SDS011;6381;45.748;12.106;2024-02-26T12:28:35;10.07;;;7.60;;
12631;SDS011;6381;45.748;12.106;2024-02-26T12:31:05;8.83;;;7.43;;
12631;SDS011;6381;45.748;12.106;2024-02-26T12:33:36;7.17;;;6.37;;
12631;SDS011;6381;45.748;12.106;2024-02-26T12:36:07;10.03;;;7.33;;
12631;SDS011;6381;45.748;12.106;2024-02-26T12:38:37;8.47;;;6.20;;
12631;SDS011;6381;45.748;12.106;2024-02-26T12:41:07;9.47;;;5.93;;
12631;SDS011;6381;45.748;12.106;2024-02-26T12:43:39;7.87;;;6.20;;
12631;SDS011;6381;45.748;12.106;2024-02-26T12:46:12;8.80;;;6.13;;
12631;SDS011;6381;45.748;12.106;2024-02-26T12:48:43;8.80;;;6.27;;
12631;SDS011;6381;45.748;12.106;2024-02-26T12:51:14;7.30;;;5.93;;
12631;SDS011;6381;45.748;12.106;2024-02-26T12:53:45;10.60;;;7.47;;
12631;SDS011;6381;45.748;12.106;2024-02-26T12:56:17;16.53;;;8.73;;
12631;SDS011;6381;45.748;12.106;2024-02-26T12:58:50;10.40;;;5.90;;
12631;SDS011;6381;45.748;12.106;2024-02-26T13:01:21;9.00;;;6.50;;
12631;SDS011;6381;45.748;12.106;2024-02-26T13:03:53;8.87;;;6.47;;
12631;SDS011;6381;45.748;12.106;2024-02-26T13:06:23;10.93;;;6.10;;
12631;SDS011;6381;45.748;12.106;2024-02-26T13:08:56;7.53;;;6.53;;
12631;SDS011;6381;45.748;12.106;2024-02-26T13:11:27;9.23;;;6.70;;
12631;SDS011;6381;45.748;12.106;2024-02-26T13:14:00;10.07;;;6.97;;
12631;SDS011;6381;45.748;12.106;2024-02-26T13:16:35;11.23;;;7.77;;
12631;SDS011;6381;45.748;12.106;2024-02-26T13:19:09;7.93;;;6.27;;
12631;SDS011;6381;45.748;12.106;2024-02-26T13:21:39;8.30;;;7.40;;
12631;SDS011;6381;45.748;12.106;2024-02-26T13:24:12;9.27;;;7.00;;
12631;SDS011;6381;45.748;12.106;2024-02-26T13:26:42;9.37;;;6.93;;
12631;SDS011;6381;45.748;12.106;2024-02-26T13:29:18;7.30;;;6.10;;
12631;SDS011;6381;45.748;12.106;2024-02-26T13:31:48;9.13;;;7.07;;
12631;SDS011;6381;45.748;12.106;2024-02-26T13:34:25;9.90;;;6.67;;
12631;SDS011;6381;45.748;12.106;2024-02-26T13:36:56;7.70;;;6.43;;
12631;SDS011;6381;45.748;12.106;2024-02-26T13:39:27;8.57;;;6.23;;
12631;SDS011;6381;45.748;12.106;2024-02-26T13:41:58;8.53;;;6.27;;
12631;SDS011;6381;45.748;12.106;2024-02-26T13:44:31;8.90;;;6.47;;
12631;SDS011;6381;45.748;12.106;2024-02-26T13:47:09;9.33;;;6.87;;
12631;SDS011;6381;45.748;12.106;2024-02-26T13:49:39;8.73;;;6.60;;
12631;SDS011;6381;45.748;12.106;2024-02-26T13:52:10;7.57;;;6.37;;
12631;SDS011;6381;45.748;12.106;2024-02-26T13:54:40;7.17;;;6.27;;
12631;SDS011;6381;45.748;12.106;2024-02-26T13:57:11;8.23;;;6.67;;
12631;SDS011;6381;45.748;12.106;2024-02-26T13:59:43;9.40;;;6.80;;
12631;SDS011;6381;45.748;12.106;2024-02-26T14:02:13;8.43;;;6.50;;
12631;SDS011;6381;45.748;12.106;2024-02-26T14:04:44;7.67;;;6.33;;
12631;SDS011;6381;45.748;12.106;2024-02-26T14:07:15;9.33;;;6.57;;
12631;SDS011;6381;45.748;12.106;2024-02-26T14:09:46;9.40;;;6.80;;
12631;SDS011;6381;45.748;12.106;2024-02-26T14:12:18;12.37;;;7.60;;
12631;SDS011;6381;45.748;12.106;2024-02-26T14:19:17;11.43;;;6.90;;
12631;SDS011;6381;45.748;12.106;2024-02-26T14:21:48;9.03;;;6.90;;
12631;SDS011;6381;45.748;12.106;2024-02-26T14:24:19;8.73;;;6.87;;
12631;SDS011;6381;45.748;12.106;2024-02-26T14:26:49;7.03;;;5.83;;
12631;SDS011;6381;45.748;12.106;2024-02-26T14:29:19;9.20;;;6.03;;
12631;SDS011;6381;45.748;12.106;2024-02-26T14:31:50;12.47;;;6.87;;
12631;SDS011;6381;45.748;12.106;2024-02-26T14:34:22;8.13;;;6.60;;
12631;SDS011;6381;45.748;12.106;2024-02-26T14:36:53;7.40;;;6.50;;
12631;SDS011;6381;45.748;12.106;2024-02-26T14:39:25;8.43;;;5.90;;
12631;SDS011;6381;45.748;12.106;2024-02-26T14:41:57;8.63;;;6.17;;
12631;SDS011;6381;45.748;12.106;2024-02-26T14:44:30;9.70;;;7.27;;
12631;SDS011;6381;45.748;12.106;2024-02-26T14:47:04;7.53;;;6.83;;
12631;SDS011;6381;45.748;12.106;2024-02-26T14:49:37;11.57;;;6.13;;
12631;SDS011;6381;45.748;12.106;2024-02-26T14:52:08;10.53;;;6.70;;
12631;SDS011;6381;45.748;12.106;2024-02-26T14:54:42;9.20;;;7.20;;
12631;SDS011;6381;45.748;12.106;2024-02-26T14:57:13;12.90;;;10.33;;
12631;SDS011;6381;45.748;12.106;2024-02-26T14:59:43;10.37;;;8.60;;
12631;SDS011;6381;45.748;12.106;2024-02-26T15:02:13;7.50;;;6.20;;
12631;SDS011;6381;45.748;12.106;2024-02-26T15:04:46;15.43;;;9.60;;
12631;SDS011;6381;45.748;12.106;2024-02-26T15:07:16;12.47;;;8.20;;
12631;SDS011;6381;45.748;12.106;2024-02-26T15:09:47;11.67;;;9.43;;
12631;SDS011;6381;45.748;12.106;2024-02-26T15:12:18;13.00;;;8.50;;
12631;SDS011;6381;45.748;12.106;2024-02-26T15:14:58;11.27;;;6.87;;
12631;SDS011;6381;45.748;12.106;2024-02-26T15:17:29;8.97;;;7.77;;